sensor_id;sensor_type;location;lat;lon;timestamp;temperature;humidity
5796;DHT22;2924;51.458;7.046;2022-10-04T00:00:11;9.20;99.90
5796;DHT22;2924;51.458;7.046;2022-10-04T00:02:39;9.20;99.90
5796;DHT22;2924;51.458;7.046;2022-10-04T00:05:15;9.30;99.90
5796;DHT22;2924;51.458;7.046;2022-10-04T00:13:57;9.30;99.90
5796;DHT22;2924;51.458;7.046;2022-10-04T00:16:32;9.40;99.90
5796;DHT22;2924;51.458;7.046;2022-10-04T00:19:25;9.40;99.90
5796;DHT22;2924;51.458;7.046;2022-10-04T00:24:22;9.40;99.90
5796;DHT22;2924;51.458;7.046;2022-10-04T00:29:29;9.50;99.90
5796;DHT22;2924;51.458;7.046;2022-10-04T00:32:26;9.50;99.90
5796;DHT22;2924;51.458;7.046;2022-10-04T00:34:52;9.50;99.90
5796;DHT22;2924;51.458;7.046;2022-10-04T00:37:23;9.40;99.90
5796;DHT22;2924;51.458;7.046;2022-10-04T00:39:59;9.40;99.90
5796;DHT22;2924;51.458;7.046;2022-10-04T00:45:13;9.40;99.90
5796;DHT22;2924;51.458;7.046;2022-10-04T00:50:53;9.30;99.90
5796;DHT22;2924;51.458;7.046;2022-10-04T00:53:30;9.30;99.90
5796;DHT22;2924;51.458;7.046;2022-10-04T00:56:00;9.30;99.90
5796;DHT22;2924;51.458;7.046;2022-10-04T01:01:44;9.30;99.90
5796;DHT22;2924;51.458;7.046;2022-10-04T01:04:27;9.30;99.90
5796;DHT22;2924;51.458;7.046;2022-10-04T01:06:59;9.30;99.90
5796;DHT22;2924;51.458;7.046;2022-10-04T01:09:26;9.30;99.90
5796;DHT22;2924;51.458;7.046;2022-10-04T01:17:25;9.40;99.90
5796;DHT22;2924;51.458;7.046;2022-10-04T01:19:52;9.30;99.90
5796;DHT22;2924;51.458;7.046;2022-10-04T01:22:40;9.30;99.90
5796;DHT22;2924;51.458;7.046;2022-10-04T01:25:07;9.30;99.90
5796;DHT22;2924;51.458;7.046;2022-10-04T01:30:03;9.40;99.90
5796;DHT22;2924;51.458;7.046;2022-10-04T01:32:30;9.40;99.90
5796;DHT22;2924;51.458;7.046;2022-10-04T01:34:56;9.40;99.90
5796;DHT22;2924;51.458;7.046;2022-10-04T01:37:22;9.40;99.90
5796;DHT22;2924;51.458;7.046;2022-10-04T01:39:48;9.40;99.90
5796;DHT22;2924;51.458;7.046;2022-10-04T01:42:21;9.30;99.90
5796;DHT22;2924;51.458;7.046;2022-10-04T01:47:58;9.20;99.90
5796;DHT22;2924;51.458;7.046;2022-10-04T01:50:38;9.10;99.90
5796;DHT22;2924;51.458;7.046;2022-10-04T01:53:18;9.10;99.90
5796;DHT22;2924;51.458;7.046;2022-10-04T01:55:51;9.10;99.90
5796;DHT22;2924;51.458;7.046;2022-10-04T01:58:24;9.20;99.90
5796;DHT22;2924;51.458;7.046;2022-10-04T02:01:33;9.20;99.90
5796;DHT22;2924;51.458;7.046;2022-10-04T02:04:12;9.10;99.90
5796;DHT22;2924;51.458;7.046;2022-10-04T02:06:42;9.10;99.90
5796;DHT22;2924;51.458;7.046;2022-10-04T02:09:12;9.00;99.90
5796;DHT22;2924;51.458;7.046;2022-10-04T02:11:40;9.00;99.90
5796;DHT22;2924;51.458;7.046;2022-10-04T02:14:16;9.00;99.90
5796;DHT22;2924;51.458;7.046;2022-10-04T02:16:45;9.10;99.90
5796;DHT22;2924;51.458;7.046;2022-10-04T02:19:13;9.00;99.90
5796;DHT22;2924;51.458;7.046;2022-10-04T02:21:40;9.00;99.90
5796;DHT22;2924;51.458;7.046;2022-10-04T02:24:07;9.00;99.90
5796;DHT22;2924;51.458;7.046;2022-10-04T02:26:33;9.10;99.90
5796;DHT22;2924;51.458;7.046;2022-10-04T02:28:59;9.10;99.90
5796;DHT22;2924;51.458;7.046;2022-10-04T02:31:25;9.10;99.90
5796;DHT22;2924;51.458;7.046;2022-10-04T02:34:10;9.20;99.90
5796;DHT22;2924;51.458;7.046;2022-10-04T02:36:36;9.20;99.90
5796;DHT22;2924;51.458;7.046;2022-10-04T02:44:24;9.20;99.90
5796;DHT22;2924;51.458;7.046;2022-10-04T02:47:28;9.10;99.90
5796;DHT22;2924;51.458;7.046;2022-10-04T02:50:04;9.20;99.90
5796;DHT22;2924;51.458;7.046;2022-10-04T02:52:54;9.20;99.90
5796;DHT22;2924;51.458;7.046;2022-10-04T02:55:26;9.20;99.90
5796;DHT22;2924;51.458;7.046;2022-10-04T02:57:52;9.20;99.90
5796;DHT22;2924;51.458;7.046;2022-10-04T03:00:27;9.10;99.90
5796;DHT22;2924;51.458;7.046;2022-10-04T03:03:29;9.10;99.90
5796;DHT22;2924;51.458;7.046;2022-10-04T03:08:21;9.10;99.90
5796;DHT22;2924;51.458;7.046;2022-10-04T03:10:47;9.10;99.90
5796;DHT22;2924;51.458;7.046;2022-10-04T03:13:14;9.10;99.90
5796;DHT22;2924;51.458;7.046;2022-10-04T03:15:41;9.10;99.90
5796;DHT22;2924;51.458;7.046;2022-10-04T03:18:08;9.10;99.90
5796;DHT22;2924;51.458;7.046;2022-10-04T03:20:38;9.10;99.90
5796;DHT22;2924;51.458;7.046;2022-10-04T03:23:05;9.20;99.90
5796;DHT22;2924;51.458;7.046;2022-10-04T03:25:51;9.20;99.90
5796;DHT22;2924;51.458;7.046;2022-10-04T03:28:17;9.30;99.90
5796;DHT22;2924;51.458;7.046;2022-10-04T03:30:44;9.30;99.90
5796;DHT22;2924;51.458;7.046;2022-10-04T03:33:17;9.30;99.90
5796;DHT22;2924;51.458;7.046;2022-10-04T03:35:46;9.30;99.90
5796;DHT22;2924;51.458;7.046;2022-10-04T03:38:13;9.40;99.90
5796;DHT22;2924;51.458;7.046;2022-10-04T03:40:43;9.40;99.90
5796;DHT22;2924;51.458;7.046;2022-10-04T03:43:13;9.30;99.90
5796;DHT22;2924;51.458;7.046;2022-10-04T03:45:39;9.40;99.90
5796;DHT22;2924;51.458;7.046;2022-10-04T03:48:10;9.40;99.90
5796;DHT22;2924;51.458;7.046;2022-10-04T03:50:49;9.40;99.90
5796;DHT22;2924;51.458;7.046;2022-10-04T03:53:30;9.40;99.90
5796;DHT22;2924;51.458;7.046;2022-10-04T03:55:57;9.40;99.90
5796;DHT22;2924;51.458;7.046;2022-10-04T03:58:26;9.50;99.90
5796;DHT22;2924;51.458;7.046;2022-10-04T04:01:04;9.50;99.90
5796;DHT22;2924;51.458;7.046;2022-10-04T04:12:10;9.30;99.90
5796;DHT22;2924;51.458;7.046;2022-10-04T04:14:40;9.20;99.90
5796;DHT22;2924;51.458;7.046;2022-10-04T04:19:53;9.30;99.90
5796;DHT22;2924;51.458;7.046;2022-10-04T04:22:21;9.20;99.90
5796;DHT22;2924;51.458;7.046;2022-10-04T04:24:47;9.20;99.90
5796;DHT22;2924;51.458;7.046;2022-10-04T04:27:16;9.20;99.90
5796;DHT22;2924;51.458;7.046;2022-10-04T04:29:47;9.20;99.90
5796;DHT22;2924;51.458;7.046;2022-10-04T04:32:21;9.10;99.90
5796;DHT22;2924;51.458;7.046;2022-10-04T04:34:51;9.10;99.90
5796;DHT22;2924;51.458;7.046;2022-10-04T04:37:17;9.20;99.90
5796;DHT22;2924;51.458;7.046;2022-10-04T04:39:43;9.20;99.90
5796;DHT22;2924;51.458;7.046;2022-10-04T04:42:19;9.20;99.90
5796;DHT22;2924;51.458;7.046;2022-10-04T04:44:51;9.20;99.90
5796;DHT22;2924;51.458;7.046;2022-10-04T04:47:38;9.20;99.90
5796;DHT22;2924;51.458;7.046;2022-10-04T04:52:33;9.20;99.90
5796;DHT22;2924;51.458;7.046;2022-10-04T04:55:01;9.20;99.90
5796;DHT22;2924;51.458;7.046;2022-10-04T04:57:27;9.10;99.90
5796;DHT22;2924;51.458;7.046;2022-10-04T04:59:56;9.10;99.90
5796;DHT22;2924;51.458;7.046;2022-10-04T05:02:52;9.10;99.90
5796;DHT22;2924;51.458;7.046;2022-10-04T05:05:26;9.00;99.90
5796;DHT22;2924;51.458;7.046;2022-10-04T05:13:15;9.10;99.90
5796;DHT22;2924;51.458;7.046;2022-10-04T05:15:42;9.00;99.90
5796;DHT22;2924;51.458;7.046;2022-10-04T05:20:55;8.90;99.90
5796;DHT22;2924;51.458;7.046;2022-10-04T05:23:21;9.00;99.90
5796;DHT22;2924;51.458;7.046;2022-10-04T05:25:48;9.00;99.90
5796;DHT22;2924;51.458;7.046;2022-10-04T05:28:15;9.00;99.90
5796;DHT22;2924;51.458;7.046;2022-10-04T05:31:03;9.10;99.90
5796;DHT22;2924;51.458;7.046;2022-10-04T05:33:59;9.10;99.90
5796;DHT22;2924;51.458;7.046;2022-10-04T05:39:30;9.10;99.90
5796;DHT22;2924;51.458;7.046;2022-10-04T05:42:20;9.00;99.90
5796;DHT22;2924;51.458;7.046;2022-10-04T05:44:55;9.00;99.90
5796;DHT22;2924;51.458;7.046;2022-10-04T05:47:24;9.00;99.90
5796;DHT22;2924;51.458;7.046;2022-10-04T05:49:55;9.00;99.90
5796;DHT22;2924;51.458;7.046;2022-10-04T05:52:33;9.00;99.90
5796;DHT22;2924;51.458;7.046;2022-10-04T06:01:35;9.00;99.90
5796;DHT22;2924;51.458;7.046;2022-10-04T06:23:11;9.20;99.90
5796;DHT22;2924;51.458;7.046;2022-10-04T06:25:53;9.30;99.90
5796;DHT22;2924;51.458;7.046;2022-10-04T06:46:33;10.20;99.90
5796;DHT22;2924;51.458;7.046;2022-10-04T06:55:23;10.50;99.90
5796;DHT22;2924;51.458;7.046;2022-10-04T07:00:25;10.70;99.90
5796;DHT22;2924;51.458;7.046;2022-10-04T07:02:57;10.80;99.90
5796;DHT22;2924;51.458;7.046;2022-10-04T07:05:36;10.90;99.90
5796;DHT22;2924;51.458;7.046;2022-10-04T07:14:26;11.30;99.90
5796;DHT22;2924;51.458;7.046;2022-10-04T07:19:16;11.60;99.90
5796;DHT22;2924;51.458;7.046;2022-10-04T07:27:28;12.40;99.90
5796;DHT22;2924;51.458;7.046;2022-10-04T07:29:57;12.60;99.90
5796;DHT22;2924;51.458;7.046;2022-10-04T07:32:26;12.70;99.90
5796;DHT22;2924;51.458;7.046;2022-10-04T07:35:04;12.80;99.90
5796;DHT22;2924;51.458;7.046;2022-10-04T07:37:59;12.80;99.90
5796;DHT22;2924;51.458;7.046;2022-10-04T07:40:35;12.80;99.90
5796;DHT22;2924;51.458;7.046;2022-10-04T07:43:06;12.80;99.90
5796;DHT22;2924;51.458;7.046;2022-10-04T07:45:37;12.80;99.90
5796;DHT22;2924;51.458;7.046;2022-10-04T07:48:13;12.90;99.90
5796;DHT22;2924;51.458;7.046;2022-10-04T07:51:19;13.00;99.90
5796;DHT22;2924;51.458;7.046;2022-10-04T07:54:01;13.10;99.90
5796;DHT22;2924;51.458;7.046;2022-10-04T07:56:50;13.20;99.90
5796;DHT22;2924;51.458;7.046;2022-10-04T07:59:56;13.20;99.90
5796;DHT22;2924;51.458;7.046;2022-10-04T08:05:37;13.40;99.90
5796;DHT22;2924;51.458;7.046;2022-10-04T08:14:54;14.20;99.90
5796;DHT22;2924;51.458;7.046;2022-10-04T08:25:57;14.50;99.90
5796;DHT22;2924;51.458;7.046;2022-10-04T08:32:02;14.80;99.90
5796;DHT22;2924;51.458;7.046;2022-10-04T08:40:15;14.60;99.90
5796;DHT22;2924;51.458;7.046;2022-10-04T08:54:43;17.50;99.90
5796;DHT22;2924;51.458;7.046;2022-10-04T09:05:30;17.50;99.90
5796;DHT22;2924;51.458;7.046;2022-10-04T09:13:47;18.00;99.90
5796;DHT22;2924;51.458;7.046;2022-10-04T09:16:18;18.40;99.90
5796;DHT22;2924;51.458;7.046;2022-10-04T09:18:57;18.50;99.90
5796;DHT22;2924;51.458;7.046;2022-10-04T09:24:28;18.60;99.90
5796;DHT22;2924;51.458;7.046;2022-10-04T09:27:49;18.60;99.90
5796;DHT22;2924;51.458;7.046;2022-10-04T09:30:21;19.00;99.90
5796;DHT22;2924;51.458;7.046;2022-10-04T09:33:07;19.30;99.90
5796;DHT22;2924;51.458;7.046;2022-10-04T09:36:22;19.40;99.90
5796;DHT22;2924;51.458;7.046;2022-10-04T09:41:12;19.10;99.90
5796;DHT22;2924;51.458;7.046;2022-10-04T10:00:55;21.60;98.20
5796;DHT22;2924;51.458;7.046;2022-10-04T10:15:01;20.80;98.50
5796;DHT22;2924;51.458;7.046;2022-10-04T10:17:39;20.90;99.20
5796;DHT22;2924;51.458;7.046;2022-10-04T10:29:08;21.40;98.20
5796;DHT22;2924;51.458;7.046;2022-10-04T10:34:48;22.00;97.80
5796;DHT22;2924;51.458;7.046;2022-10-04T10:46:08;23.10;95.80
5796;DHT22;2924;51.458;7.046;2022-10-04T11:00:23;22.00;96.10
5796;DHT22;2924;51.458;7.046;2022-10-04T11:06:10;21.60;96.60
5796;DHT22;2924;51.458;7.046;2022-10-04T11:28:25;21.10;96.80
5796;DHT22;2924;51.458;7.046;2022-10-04T11:41:39;21.10;97.00
5796;DHT22;2924;51.458;7.046;2022-10-04T11:49:48;20.90;97.30
5796;DHT22;2924;51.458;7.046;2022-10-04T11:52:36;20.50;97.80
5796;DHT22;2924;51.458;7.046;2022-10-04T12:11:45;21.80;95.80
5796;DHT22;2924;51.458;7.046;2022-10-04T12:28:36;22.10;96.70
5796;DHT22;2924;51.458;7.046;2022-10-04T12:31:40;21.90;95.90
5796;DHT22;2924;51.458;7.046;2022-10-04T12:39:37;21.70;95.80
5796;DHT22;2924;51.458;7.046;2022-10-04T12:49:57;21.70;96.10
5796;DHT22;2924;51.458;7.046;2022-10-04T12:52:28;21.80;96.20
5796;DHT22;2924;51.458;7.046;2022-10-04T12:55:19;22.10;96.00
5796;DHT22;2924;51.458;7.046;2022-10-04T12:57:59;22.20;95.60
5796;DHT22;2924;51.458;7.046;2022-10-04T13:00:34;22.40;94.40
5796;DHT22;2924;51.458;7.046;2022-10-04T13:05:58;22.00;94.80
5796;DHT22;2924;51.458;7.046;2022-10-04T13:22:18;21.10;96.70
5796;DHT22;2924;51.458;7.046;2022-10-04T13:25:09;21.40;96.80
5796;DHT22;2924;51.458;7.046;2022-10-04T13:27:57;21.10;96.40
5796;DHT22;2924;51.458;7.046;2022-10-04T13:31:09;20.90;96.30
5796;DHT22;2924;51.458;7.046;2022-10-04T13:33:26;21.00;95.80
5796;DHT22;2924;51.458;7.046;2022-10-04T13:36:05;20.90;96.20
5796;DHT22;2924;51.458;7.046;2022-10-04T13:59:42;20.50;95.70
5796;DHT22;2924;51.458;7.046;2022-10-04T14:18:15;20.10;96.40
5796;DHT22;2924;51.458;7.046;2022-10-04T14:20:57;20.10;96.20
5796;DHT22;2924;51.458;7.046;2022-10-04T14:35:11;19.90;96.70
5796;DHT22;2924;51.458;7.046;2022-10-04T14:51:23;20.10;97.00
5796;DHT22;2924;51.458;7.046;2022-10-04T14:59:20;19.90;97.50
5796;DHT22;2924;51.458;7.046;2022-10-04T15:02:08;19.60;98.20
5796;DHT22;2924;51.458;7.046;2022-10-04T15:05:11;19.40;98.50
5796;DHT22;2924;51.458;7.046;2022-10-04T15:07:50;19.40;98.90
5796;DHT22;2924;51.458;7.046;2022-10-04T15:10:35;19.60;98.70
5796;DHT22;2924;51.458;7.046;2022-10-04T15:18:29;19.40;99.20
5796;DHT22;2924;51.458;7.046;2022-10-04T15:21:01;19.40;99.00
5796;DHT22;2924;51.458;7.046;2022-10-04T15:23:49;19.40;99.20
5796;DHT22;2924;51.458;7.046;2022-10-04T15:36:46;18.90;99.90
5796;DHT22;2924;51.458;7.046;2022-10-04T15:47:29;18.40;99.90
5796;DHT22;2924;51.458;7.046;2022-10-04T16:01:20;18.70;99.90
5796;DHT22;2924;51.458;7.046;2022-10-04T16:06:59;18.50;99.90
5796;DHT22;2924;51.458;7.046;2022-10-04T16:10:06;18.40;99.90
5796;DHT22;2924;51.458;7.046;2022-10-04T16:23:41;17.20;99.90
5796;DHT22;2924;51.458;7.046;2022-10-04T16:37:52;16.30;99.90
5796;DHT22;2924;51.458;7.046;2022-10-04T16:54:00;15.80;99.90
5796;DHT22;2924;51.458;7.046;2022-10-04T16:56:32;15.70;99.90
5796;DHT22;2924;51.458;7.046;2022-10-04T16:59:44;15.60;99.90
5796;DHT22;2924;51.458;7.046;2022-10-04T17:07:51;15.50;99.90
5796;DHT22;2924;51.458;7.046;2022-10-04T17:10:34;15.30;99.90
5796;DHT22;2924;51.458;7.046;2022-10-04T17:15:47;15.30;99.90
5796;DHT22;2924;51.458;7.046;2022-10-04T17:18:18;15.20;99.90
5796;DHT22;2924;51.458;7.046;2022-10-04T17:20:59;15.10;99.90
5796;DHT22;2924;51.458;7.046;2022-10-04T17:23:38;15.10;99.90
5796;DHT22;2924;51.458;7.046;2022-10-04T17:32:19;14.90;99.90
5796;DHT22;2924;51.458;7.046;2022-10-04T17:37:34;14.80;99.90
5796;DHT22;2924;51.458;7.046;2022-10-04T17:48:25;14.60;99.90
5796;DHT22;2924;51.458;7.046;2022-10-04T17:54:16;14.40;99.90
5796;DHT22;2924;51.458;7.046;2022-10-04T17:59:42;14.20;99.90
5796;DHT22;2924;51.458;7.046;2022-10-04T18:04:54;14.00;99.90
5796;DHT22;2924;51.458;7.046;2022-10-04T18:07:32;13.90;99.90
5796;DHT22;2924;51.458;7.046;2022-10-04T18:10:13;13.90;99.90
5796;DHT22;2924;51.458;7.046;2022-10-04T18:12:45;13.80;99.90
5796;DHT22;2924;51.458;7.046;2022-10-04T18:15:50;13.80;99.90
5796;DHT22;2924;51.458;7.046;2022-10-04T18:18:18;13.70;99.90
5796;DHT22;2924;51.458;7.046;2022-10-04T18:25:44;14.00;99.90
5796;DHT22;2924;51.458;7.046;2022-10-04T18:28:13;14.20;99.90
5796;DHT22;2924;51.458;7.046;2022-10-04T18:34:13;14.30;99.90
5796;DHT22;2924;51.458;7.046;2022-10-04T18:36:17;14.40;99.90
5796;DHT22;2924;51.458;7.046;2022-10-04T18:38:45;14.60;99.90
5796;DHT22;2924;51.458;7.046;2022-10-04T18:41:23;14.70;99.90
5796;DHT22;2924;51.458;7.046;2022-10-04T18:44:25;14.70;99.90
5796;DHT22;2924;51.458;7.046;2022-10-04T18:46:58;14.60;99.90
5796;DHT22;2924;51.458;7.046;2022-10-04T18:49:29;14.40;99.90
5796;DHT22;2924;51.458;7.046;2022-10-04T18:57:41;14.20;99.90
5796;DHT22;2924;51.458;7.046;2022-10-04T19:00:35;14.10;99.90
5796;DHT22;2924;51.458;7.046;2022-10-04T19:03:44;14.10;99.90
5796;DHT22;2924;51.458;7.046;2022-10-04T19:06:24;14.10;99.90
5796;DHT22;2924;51.458;7.046;2022-10-04T19:11:28;13.90;99.90
5796;DHT22;2924;51.458;7.046;2022-10-04T19:14:28;13.70;99.90
5796;DHT22;2924;51.458;7.046;2022-10-04T19:17:53;13.60;99.90
5796;DHT22;2924;51.458;7.046;2022-10-04T19:27:13;13.50;99.90
5796;DHT22;2924;51.458;7.046;2022-10-04T19:40:43;13.50;99.90
5796;DHT22;2924;51.458;7.046;2022-10-04T19:43:33;13.50;99.90
5796;DHT22;2924;51.458;7.046;2022-10-04T19:49:00;13.40;99.90
5796;DHT22;2924;51.458;7.046;2022-10-04T19:51:49;13.50;99.90
5796;DHT22;2924;51.458;7.046;2022-10-04T19:54:22;13.40;99.90
5796;DHT22;2924;51.458;7.046;2022-10-04T19:56:54;13.40;99.90
5796;DHT22;2924;51.458;7.046;2022-10-04T20:01:56;13.40;99.90
5796;DHT22;2924;51.458;7.046;2022-10-04T20:04:22;13.30;99.90
5796;DHT22;2924;51.458;7.046;2022-10-04T20:07:02;13.30;99.90
5796;DHT22;2924;51.458;7.046;2022-10-04T20:09:50;13.30;99.90
5796;DHT22;2924;51.458;7.046;2022-10-04T20:12:35;13.30;99.90
5796;DHT22;2924;51.458;7.046;2022-10-04T20:17:40;13.30;99.90
5796;DHT22;2924;51.458;7.046;2022-10-04T20:20:06;13.30;99.90
5796;DHT22;2924;51.458;7.046;2022-10-04T20:22:52;13.30;99.90
5796;DHT22;2924;51.458;7.046;2022-10-04T20:30:59;13.20;99.90
5796;DHT22;2924;51.458;7.046;2022-10-04T20:36:10;13.10;99.90
5796;DHT22;2924;51.458;7.046;2022-10-04T20:44:40;13.10;99.90
5796;DHT22;2924;51.458;7.046;2022-10-04T20:50:15;13.00;99.90
5796;DHT22;2924;51.458;7.046;2022-10-04T20:52:50;12.90;99.90
5796;DHT22;2924;51.458;7.046;2022-10-04T20:55:21;12.90;99.90
5796;DHT22;2924;51.458;7.046;2022-10-04T20:57:52;12.90;99.90
5796;DHT22;2924;51.458;7.046;2022-10-04T21:00:21;12.80;99.90
5796;DHT22;2924;51.458;7.046;2022-10-04T21:02:48;12.80;99.90
5796;DHT22;2924;51.458;7.046;2022-10-04T21:05:21;12.80;99.90
5796;DHT22;2924;51.458;7.046;2022-10-04T21:08:10;12.70;99.90
5796;DHT22;2924;51.458;7.046;2022-10-04T21:10:34;12.70;99.90
5796;DHT22;2924;51.458;7.046;2022-10-04T21:13:00;12.70;99.90
5796;DHT22;2924;51.458;7.046;2022-10-04T21:15:26;12.60;99.90
5796;DHT22;2924;51.458;7.046;2022-10-04T21:18:05;12.60;99.90
5796;DHT22;2924;51.458;7.046;2022-10-04T21:20:45;12.40;99.90
5796;DHT22;2924;51.458;7.046;2022-10-04T21:23:19;12.30;99.90
5796;DHT22;2924;51.458;7.046;2022-10-04T21:25:48;12.40;99.90
5796;DHT22;2924;51.458;7.046;2022-10-04T21:28:28;12.30;99.90
5796;DHT22;2924;51.458;7.046;2022-10-04T21:30:54;12.30;99.90
5796;DHT22;2924;51.458;7.046;2022-10-04T21:33:19;12.30;99.90
5796;DHT22;2924;51.458;7.046;2022-10-04T21:35:48;12.40;99.90
5796;DHT22;2924;51.458;7.046;2022-10-04T21:38:14;12.30;99.90
5796;DHT22;2924;51.458;7.046;2022-10-04T21:40:40;12.40;99.90
5796;DHT22;2924;51.458;7.046;2022-10-04T21:43:05;12.40;99.90
5796;DHT22;2924;51.458;7.046;2022-10-04T21:45:31;12.40;99.90
5796;DHT22;2924;51.458;7.046;2022-10-04T21:47:57;12.40;99.90
5796;DHT22;2924;51.458;7.046;2022-10-04T21:50:22;12.40;99.90
5796;DHT22;2924;51.458;7.046;2022-10-04T21:52:49;12.50;99.90
5796;DHT22;2924;51.458;7.046;2022-10-04T21:55:15;12.50;99.90
5796;DHT22;2924;51.458;7.046;2022-10-04T21:57:40;12.50;99.90
5796;DHT22;2924;51.458;7.046;2022-10-04T22:00:07;12.50;99.90
5796;DHT22;2924;51.458;7.046;2022-10-04T22:02:32;12.50;99.90
5796;DHT22;2924;51.458;7.046;2022-10-04T22:04:58;12.30;99.90
5796;DHT22;2924;51.458;7.046;2022-10-04T22:07:24;12.30;99.90
5796;DHT22;2924;51.458;7.046;2022-10-04T22:09:50;12.30;99.90
5796;DHT22;2924;51.458;7.046;2022-10-04T22:12:15;12.20;99.90
5796;DHT22;2924;51.458;7.046;2022-10-04T22:14:41;12.10;99.90
5796;DHT22;2924;51.458;7.046;2022-10-04T22:17:07;12.10;99.90
5796;DHT22;2924;51.458;7.046;2022-10-04T22:19:32;12.20;99.90
5796;DHT22;2924;51.458;7.046;2022-10-04T22:21:58;12.30;99.90
5796;DHT22;2924;51.458;7.046;2022-10-04T22:24:24;12.30;99.90
5796;DHT22;2924;51.458;7.046;2022-10-04T22:26:49;12.40;99.90
5796;DHT22;2924;51.458;7.046;2022-10-04T22:29:16;12.40;99.90
5796;DHT22;2924;51.458;7.046;2022-10-04T22:31:51;12.40;99.90
5796;DHT22;2924;51.458;7.046;2022-10-04T22:34:19;12.40;99.90
5796;DHT22;2924;51.458;7.046;2022-10-04T22:36:47;12.40;99.90
5796;DHT22;2924;51.458;7.046;2022-10-04T22:39:16;12.30;99.90
5796;DHT22;2924;51.458;7.046;2022-10-04T22:41:46;12.20;99.90
5796;DHT22;2924;51.458;7.046;2022-10-04T22:46:55;12.00;99.90
5796;DHT22;2924;51.458;7.046;2022-10-04T22:49:45;12.00;99.90
5796;DHT22;2924;51.458;7.046;2022-10-04T22:52:20;12.10;99.90
5796;DHT22;2924;51.458;7.046;2022-10-04T22:54:48;12.10;99.90
5796;DHT22;2924;51.458;7.046;2022-10-04T22:57:15;12.10;99.90
5796;DHT22;2924;51.458;7.046;2022-10-04T22:59:48;12.10;99.90
5796;DHT22;2924;51.458;7.046;2022-10-04T23:02:22;12.20;99.90
5796;DHT22;2924;51.458;7.046;2022-10-04T23:07:37;12.10;99.90
5796;DHT22;2924;51.458;7.046;2022-10-04T23:10:03;12.20;99.90
5796;DHT22;2924;51.458;7.046;2022-10-04T23:12:28;12.30;99.90
5796;DHT22;2924;51.458;7.046;2022-10-04T23:14:54;12.30;99.90
5796;DHT22;2924;51.458;7.046;2022-10-04T23:19:50;12.30;99.90
5796;DHT22;2924;51.458;7.046;2022-10-04T23:22:17;12.40;99.90
5796;DHT22;2924;51.458;7.046;2022-10-04T23:24:45;12.40;99.90
5796;DHT22;2924;51.458;7.046;2022-10-04T23:27:15;12.30;99.90
5796;DHT22;2924;51.458;7.046;2022-10-04T23:29:44;12.30;99.90
5796;DHT22;2924;51.458;7.046;2022-10-04T23:32:15;12.30;99.90
5796;DHT22;2924;51.458;7.046;2022-10-04T23:34:45;12.20;99.90
5796;DHT22;2924;51.458;7.046;2022-10-04T23:37:24;12.20;99.90
5796;DHT22;2924;51.458;7.046;2022-10-04T23:39:50;12.10;99.90
5796;DHT22;2924;51.458;7.046;2022-10-04T23:42:20;12.10;99.90
5796;DHT22;2924;51.458;7.046;2022-10-04T23:44:50;12.10;99.90
5796;DHT22;2924;51.458;7.046;2022-10-04T23:47:20;12.00;99.90
5796;DHT22;2924;51.458;7.046;2022-10-04T23:49:49;12.10;99.90
5796;DHT22;2924;51.458;7.046;2022-10-04T23:52:21;12.00;99.90
5796;DHT22;2924;51.458;7.046;2022-10-04T23:54:50;12.00;99.90
5796;DHT22;2924;51.458;7.046;2022-10-04T23:57:27;12.00;99.90
5796;DHT22;2924;51.458;7.046;2022-10-04T23:59:57;12.00;99.90
